createdAt,value
2022-09-22T00:01:15.216Z,11.50
2022-09-22T00:03:44.758Z,11.50
2022-09-22T00:06:14.359Z,11.50
2022-09-22T00:08:44.641Z,11.50
2022-09-22T00:11:24.986Z,11.40
2022-09-22T00:13:54.557Z,11.40
2022-09-22T00:16:24.378Z,11.30
2022-09-22T00:18:51.344Z,11.30
2022-09-22T00:21:20.599Z,11.30
2022-09-22T00:23:47.777Z,11.30
2022-09-22T00:26:18.413Z,11.30
2022-09-22T00:28:47.261Z,11.30
2022-09-22T00:31:25.740Z,11.30
2022-09-22T00:33:54.182Z,11.30
2022-09-22T00:36:24.160Z,11.20
2022-09-22T00:38:51.640Z,11.20
2022-09-22T00:41:24.938Z,11.10
2022-09-22T00:44:26.539Z,11.10
2022-09-22T00:47:13.798Z,11.10
2022-09-22T00:49:40.507Z,11.10
2022-09-22T00:52:08.485Z,11.00
2022-09-22T00:54:35.521Z,11.00
2022-09-22T00:57:11.353Z,11.10
2022-09-22T00:59:39.056Z,11.00
2022-09-22T01:02:06.523Z,10.90
2022-09-22T01:04:33.793Z,10.90
2022-09-22T01:07:02.536Z,10.90
2022-09-22T01:09:33.087Z,10.90
2022-09-22T01:12:04.402Z,10.80
2022-09-22T01:14:53.823Z,10.80
2022-09-22T01:17:58.721Z,10.80
2022-09-22T01:20:47.046Z,10.80
2022-09-22T01:23:38.321Z,10.70
2022-09-22T01:26:11.030Z,10.70
2022-09-22T01:28:58.869Z,10.70
2022-09-22T01:31:50.860Z,10.60
2022-09-22T01:34:26.751Z,10.60
2022-09-22T01:36:59.769Z,10.60
2022-09-22T01:39:36.775Z,10.50
2022-09-22T01:42:11.449Z,10.50
2022-09-22T01:45:00.279Z,10.50
2022-09-22T01:47:53.473Z,10.50
2022-09-22T01:50:31.572Z,10.40
2022-09-22T01:53:05.556Z,10.40
2022-09-22T01:55:36.861Z,10.40
2022-09-22T01:58:14.930Z,10.30
2022-09-22T02:00:48.453Z,10.30
2022-09-22T02:03:21.380Z,10.30
2022-09-22T02:06:02.619Z,10.20
2022-09-22T02:08:59.307Z,10.20
2022-09-22T02:11:26.132Z,10.20
2022-09-22T02:13:53.536Z,10.20
2022-09-22T02:16:22.613Z,10.20
2022-09-22T02:18:55.683Z,10.10
2022-09-22T02:21:25.742Z,10.10
2022-09-22T02:23:52.599Z,10.10
2022-09-22T02:26:23.943Z,10.10
2022-09-22T02:29:02.146Z,10.10
2022-09-22T02:31:33.133Z,10.00
2022-09-22T02:34:01.236Z,10.10
2022-09-22T02:36:51.475Z,10.00
2022-09-22T02:39:52.908Z,10.00
2022-09-22T02:42:28.638Z,9.90
2022-09-22T02:45:08.494Z,9.90
2022-09-22T02:47:57.269Z,9.90
2022-09-22T02:50:27.414Z,9.90
2022-09-22T02:53:01.162Z,10.00
2022-09-22T02:55:28.086Z,9.90
2022-09-22T02:57:55.022Z,9.90
2022-09-22T03:00:22.505Z,9.90
2022-09-22T03:02:49.289Z,9.90
2022-09-22T03:05:16.067Z,9.90
2022-09-22T03:07:42.767Z,9.80
2022-09-22T03:10:10.216Z,9.80
2022-09-22T03:13:02.298Z,9.80
2022-09-22T03:15:29.450Z,9.80
2022-09-22T03:17:56.159Z,9.80
2022-09-22T03:20:22.854Z,9.80
2022-09-22T03:22:49.522Z,9.70
2022-09-22T03:25:16.214Z,9.70
2022-09-22T03:27:42.986Z,9.60
2022-09-22T03:30:10.851Z,9.60
2022-09-22T03:32:37.954Z,9.60
2022-09-22T03:35:05.410Z,9.60
2022-09-22T03:37:33.184Z,9.60
2022-09-22T03:39:59.862Z,9.60
2022-09-22T03:42:26.675Z,9.60
2022-09-22T03:44:53.350Z,9.60
2022-09-22T03:47:20.208Z,9.60
2022-09-22T03:49:46.887Z,9.50
2022-09-22T03:52:13.676Z,9.50
2022-09-22T03:54:40.388Z,9.50
2022-09-22T03:57:07.123Z,9.50
2022-09-22T03:59:33.887Z,9.50
2022-09-22T04:02:02.508Z,9.50
2022-09-22T04:04:29.279Z,9.40
2022-09-22T04:06:56.067Z,9.40
2022-09-22T04:09:22.938Z,9.40
2022-09-22T04:11:49.665Z,9.40
2022-09-22T04:14:16.500Z,9.30
2022-09-22T04:16:43.435Z,9.30
2022-09-22T04:19:10.514Z,9.30
2022-09-22T04:21:37.322Z,9.30
2022-09-22T04:24:04.326Z,9.30
2022-09-22T04:26:30.998Z,9.30
2022-09-22T04:28:57.698Z,9.20
2022-09-22T04:31:24.564Z,9.30
2022-09-22T04:33:51.242Z,9.20
2022-09-22T04:36:17.917Z,9.20
2022-09-22T04:38:44.601Z,9.20
2022-09-22T04:41:11.297Z,9.30
2022-09-22T04:43:38.076Z,9.30
2022-09-22T04:46:05.318Z,9.30
2022-09-22T04:48:32.434Z,9.40
2022-09-22T04:50:59.077Z,9.30
2022-09-22T04:53:25.969Z,9.30
2022-09-22T04:55:52.740Z,9.30
2022-09-22T04:58:19.406Z,9.30
2022-09-22T05:00:46.071Z,9.30
2022-09-22T05:03:13.107Z,9.30
2022-09-22T05:05:40.457Z,9.30
2022-09-22T05:08:07.659Z,9.20
2022-09-22T05:10:36.753Z,9.30
2022-09-22T05:13:04.373Z,9.20
2022-09-22T05:15:33.110Z,9.20
2022-09-22T05:18:00.253Z,9.30
2022-09-22T05:20:27.071Z,9.20
2022-09-22T05:22:54.961Z,9.20
2022-09-22T05:25:22.070Z,9.20
2022-09-22T05:27:55.796Z,9.20
2022-09-22T05:30:25.081Z,9.30
2022-09-22T05:32:52.090Z,9.20
2022-09-22T05:35:21.432Z,9.30
2022-09-22T05:37:49.833Z,9.20
2022-09-22T05:40:17.212Z,9.20
2022-09-22T05:42:49.248Z,9.20
2022-09-22T05:45:16.609Z,9.20
2022-09-22T05:47:43.710Z,9.20
2022-09-22T05:50:12.214Z,9.20
2022-09-22T05:52:38.987Z,9.20
2022-09-22T05:55:07.438Z,9.30
2022-09-22T05:57:34.306Z,9.30
2022-09-22T06:00:01.187Z,9.30
2022-09-22T06:02:28.101Z,9.30
2022-09-22T06:04:54.827Z,9.30
2022-09-22T06:07:22.498Z,9.30
2022-09-22T06:09:49.632Z,9.30
2022-09-22T06:12:17.032Z,9.30
2022-09-22T06:14:43.834Z,9.30
2022-09-22T06:17:10.694Z,9.30
2022-09-22T06:19:38.555Z,9.30
2022-09-22T06:22:05.588Z,9.30
2022-09-22T06:24:32.785Z,9.40
2022-09-22T06:26:59.565Z,9.40
2022-09-22T06:29:26.791Z,9.40
2022-09-22T06:31:53.767Z,9.40
2022-09-22T06:34:20.557Z,9.50
2022-09-22T06:36:47.317Z,9.50
2022-09-22T06:39:14.270Z,9.50
2022-09-22T06:41:41.229Z,9.60
2022-09-22T06:44:08.150Z,9.60
2022-09-22T06:46:35.150Z,9.60
2022-09-22T06:49:02.550Z,9.60
2022-09-22T06:51:35.057Z,9.70
2022-09-22T06:54:05.206Z,9.70
2022-09-22T06:56:42.720Z,9.80
2022-09-22T06:59:13.554Z,9.90
2022-09-22T07:01:42.513Z,9.90
2022-09-22T07:04:10.376Z,10.00
2022-09-22T07:06:37.565Z,10.10
2022-09-22T07:09:05.717Z,10.10
2022-09-22T07:11:36.248Z,10.20
2022-09-22T07:14:06.062Z,10.20
2022-09-22T07:16:32.806Z,10.30
2022-09-22T07:18:59.661Z,10.50
2022-09-22T07:21:37.752Z,10.50
2022-09-22T07:24:05.842Z,10.60
2022-09-22T07:26:35.134Z,10.60
2022-09-22T07:29:13.774Z,10.70
2022-09-22T07:31:41.843Z,10.80
2022-09-22T07:34:08.742Z,10.90
2022-09-22T07:36:37.231Z,10.90
2022-09-22T07:39:07.414Z,11.00
2022-09-22T07:41:44.210Z,11.10
2022-09-22T07:44:32.128Z,11.20
2022-09-22T07:46:59.404Z,11.30
2022-09-22T07:49:26.749Z,11.30
2022-09-22T07:51:57.486Z,11.50
2022-09-22T07:54:25.703Z,11.50
2022-09-22T07:56:56.059Z,11.60
2022-09-22T07:59:22.802Z,11.70
2022-09-22T08:01:50.736Z,11.90
2022-09-22T08:04:22.715Z,11.90
2022-09-22T08:06:54.365Z,12.00
2022-09-22T08:09:22.184Z,12.10
2022-09-22T08:11:49.849Z,12.20
2022-09-22T08:14:17.572Z,12.30
2022-09-22T08:16:46.033Z,12.40
2022-09-22T08:19:14.520Z,12.50
2022-09-22T08:21:48.807Z,12.70
2022-09-22T08:24:22.275Z,12.70
2022-09-22T08:26:52.216Z,12.90
2022-09-22T08:29:18.926Z,13.00
2022-09-22T08:31:46.964Z,13.10
2022-09-22T08:34:18.551Z,13.20
2022-09-22T08:36:49.186Z,13.30
2022-09-22T08:39:17.383Z,13.40
2022-09-22T08:42:10.391Z,13.60
2022-09-22T08:44:39.869Z,13.70
2022-09-22T08:47:13.302Z,13.80
2022-09-22T08:50:07.046Z,13.90
2022-09-22T08:52:52.225Z,14.10
2022-09-22T08:55:25.972Z,14.50
2022-09-22T08:58:00.950Z,14.70
2022-09-22T09:00:41.954Z,14.90
2022-09-22T09:03:09.661Z,14.90
2022-09-22T09:06:02.114Z,15.00
2022-09-22T09:09:04.773Z,15.10
2022-09-22T09:11:53.169Z,15.20
2022-09-22T09:14:25.706Z,15.40
2022-09-22T09:17:03.732Z,15.40
2022-09-22T09:19:33.745Z,15.50
2022-09-22T09:22:05.482Z,15.50
2022-09-22T09:27:28.140Z,15.70
2022-09-22T09:30:11.933Z,15.90
2022-09-22T09:32:59.195Z,15.90
2022-09-22T09:35:44.193Z,16.20
2022-09-22T09:38:15.933Z,16.10
2022-09-22T09:40:48.110Z,16.20
2022-09-22T09:43:15.680Z,16.30
2022-09-22T09:46:07.327Z,16.40
2022-09-22T09:48:51.839Z,16.50
2022-09-22T09:51:20.160Z,16.60
2022-09-22T09:53:47.806Z,16.80
2022-09-22T09:56:26.789Z,16.90
2022-09-22T09:59:19.032Z,17.00
2022-09-22T10:01:48.299Z,17.10
2022-09-22T10:04:29.216Z,17.10
2022-09-22T10:07:10.907Z,17.20
2022-09-22T10:09:37.823Z,17.30
2022-09-22T10:12:04.929Z,17.50
2022-09-22T10:14:33.666Z,17.70
2022-09-22T10:17:00.737Z,17.80
2022-09-22T10:19:32.596Z,17.90
2022-09-22T10:22:28.206Z,17.90
2022-09-22T10:25:01.863Z,18.10
2022-09-22T10:27:30.881Z,18.00
2022-09-22T10:30:25.728Z,18.10
2022-09-22T10:33:16.404Z,18.20
2022-09-22T10:36:12.100Z,18.20
2022-09-22T10:38:41.816Z,18.10
2022-09-22T10:41:20.390Z,18.20
2022-09-22T10:44:38.141Z,18.20
2022-09-22T10:47:27.672Z,18.20
2022-09-22T10:50:16.091Z,18.40
2022-09-22T10:52:52.324Z,18.40
2022-09-22T10:55:46.045Z,18.40
2022-09-22T10:58:27.327Z,18.50
2022-09-22T11:01:28.818Z,18.70
2022-09-22T11:04:07.483Z,18.80
2022-09-22T11:07:16.070Z,18.90
2022-09-22T11:10:32.922Z,19.00
2022-09-22T11:13:08.782Z,18.90
2022-09-22T11:15:58.157Z,19.10
2022-09-22T11:18:36.449Z,19.10
2022-09-22T11:21:13.906Z,19.20
2022-09-22T11:23:51.475Z,19.30
2022-09-22T11:26:47.461Z,19.30
2022-09-22T11:29:41.826Z,19.30
2022-09-22T11:32:37.846Z,19.40
2022-09-22T11:35:29.081Z,19.50
2022-09-22T11:38:32.500Z,19.40
2022-09-22T11:41:28.443Z,19.40
2022-09-22T11:44:28.911Z,19.50
2022-09-22T11:46:55.798Z,19.60
2022-09-22T11:50:04.886Z,19.60
2022-09-22T11:52:58.764Z,19.60
2022-09-22T11:55:40.281Z,19.60
2022-09-22T11:58:21.886Z,19.80
2022-09-22T12:01:05.469Z,20.00
2022-09-22T12:03:47.185Z,20.10
2022-09-22T12:06:29.290Z,20.10
2022-09-22T12:09:10.176Z,20.40
2022-09-22T12:11:37.750Z,20.60
2022-09-22T12:14:05.634Z,20.80
2022-09-22T12:16:50.197Z,21.00
2022-09-22T12:19:50.599Z,20.90
2022-09-22T12:22:55.194Z,20.90
2022-09-22T12:25:50.696Z,21.00
2022-09-22T12:28:22.373Z,21.30
2022-09-22T12:31:02.431Z,21.50
2022-09-22T12:33:29.815Z,21.50
2022-09-22T12:35:58.177Z,21.70
2022-09-22T12:38:25.276Z,21.90
2022-09-22T12:40:55.844Z,21.90
2022-09-22T12:43:24.661Z,22.10
2022-09-22T12:45:53.440Z,22.30
2022-09-22T12:48:25.642Z,22.50
2022-09-22T12:50:52.803Z,22.30
2022-09-22T12:53:22.585Z,22.30
2022-09-22T12:55:56.782Z,22.40
2022-09-22T12:58:23.732Z,22.50
2022-09-22T13:00:56.276Z,22.60
2022-09-22T13:03:26.123Z,22.80
2022-09-22T13:05:55.049Z,23.00
2022-09-22T13:08:31.965Z,23.20
2022-09-22T13:11:04.368Z,23.40
2022-09-22T13:13:31.145Z,23.60
2022-09-22T13:16:03.299Z,23.80
2022-09-22T13:18:40.466Z,24.00
2022-09-22T13:21:13.350Z,24.30
2022-09-22T13:23:53.777Z,24.40
2022-09-22T13:26:39.274Z,24.30
2022-09-22T13:29:20.094Z,24.20
2022-09-22T13:31:51.186Z,24.60
2022-09-22T13:34:26.754Z,25.10
2022-09-22T13:37:17.473Z,25.30
2022-09-22T13:39:47.745Z,25.40
2022-09-22T13:42:23.690Z,25.60
2022-09-22T13:45:06.978Z,25.80
2022-09-22T13:47:35.100Z,26.20
2022-09-22T13:50:08.272Z,26.40
2022-09-22T13:52:38.612Z,26.40
2022-09-22T13:55:09.222Z,26.80
2022-09-22T13:57:37.706Z,26.80
2022-09-22T14:00:06.548Z,27.20
2022-09-22T14:02:34.316Z,27.30
2022-09-22T14:05:05.886Z,27.20
2022-09-22T14:07:45.118Z,26.30
2022-09-22T14:10:19.164Z,25.30
2022-09-22T14:12:47.035Z,24.30
2022-09-22T14:15:45.651Z,23.70
2022-09-22T14:18:26.217Z,23.20
2022-09-22T14:20:57.081Z,22.70
2022-09-22T14:23:28.510Z,22.20
2022-09-22T14:25:57.216Z,21.90
2022-09-22T14:28:31.823Z,21.70
2022-09-22T14:30:58.669Z,21.40
2022-09-22T14:33:29.321Z,21.20
2022-09-22T14:36:05.464Z,20.90
2022-09-22T14:38:46.145Z,20.80
2022-09-22T14:41:33.577Z,20.80
2022-09-22T14:44:00.735Z,20.60
2022-09-22T14:46:33.936Z,20.40
2022-09-22T14:49:43.216Z,20.30
2022-09-22T14:52:27.520Z,20.30
2022-09-22T14:54:57.453Z,20.30
2022-09-22T14:57:26.442Z,20.40
2022-09-22T15:00:14.822Z,20.30
2022-09-22T15:02:45.532Z,20.30
2022-09-22T15:05:30.404Z,20.20
2022-09-22T15:07:58.358Z,20.20
2022-09-22T15:10:31.819Z,20.10
2022-09-22T15:13:39.218Z,20.00
2022-09-22T15:16:26.951Z,19.90
2022-09-22T15:18:53.950Z,19.90
2022-09-22T15:21:28.976Z,19.80
2022-09-22T15:23:58.121Z,19.90
2022-09-22T15:26:27.019Z,19.80
2022-09-22T15:28:56.409Z,19.70
2022-09-22T15:31:32.784Z,19.70
2022-09-22T15:34:01.296Z,19.70
2022-09-22T15:36:32.849Z,19.60
2022-09-22T15:39:23.890Z,19.60
2022-09-22T15:41:52.251Z,19.60
2022-09-22T15:44:19.655Z,19.60
2022-09-22T15:46:53.170Z,19.50
2022-09-22T15:49:26.591Z,19.50
2022-09-22T15:51:56.620Z,19.50
2022-09-22T15:54:25.110Z,19.50
2022-09-22T15:56:54.811Z,19.50
2022-09-22T15:59:26.835Z,19.40
2022-09-22T16:01:55.877Z,19.30
2022-09-22T16:04:23.747Z,19.20
2022-09-22T16:06:55.621Z,19.20
2022-09-22T16:09:22.442Z,19.10
2022-09-22T16:11:49.250Z,19.10
2022-09-22T16:14:16.643Z,19.00
2022-09-22T16:16:43.338Z,19.00
2022-09-22T16:19:10.446Z,19.00
2022-09-22T16:21:40.418Z,18.90
2022-09-22T16:24:10.612Z,18.80
2022-09-22T16:26:39.222Z,18.80
2022-09-22T16:29:07.479Z,18.80
2022-09-22T16:31:35.403Z,18.80
2022-09-22T16:34:04.030Z,18.70
2022-09-22T16:36:33.481Z,18.70
2022-09-22T16:39:01.329Z,18.70
2022-09-22T16:41:31.150Z,18.60
2022-09-22T16:43:59.105Z,18.60
2022-09-22T16:46:30.601Z,18.50
2022-09-22T16:49:00.099Z,18.50
2022-09-22T16:51:27.965Z,18.40
2022-09-22T16:53:54.841Z,18.40
2022-09-22T16:56:23.962Z,18.30
2022-09-22T16:58:51.710Z,18.30
2022-09-22T17:01:20.194Z,18.30
2022-09-22T17:03:55.096Z,18.20
2022-09-22T17:06:24.466Z,18.20
2022-09-22T17:08:56.919Z,18.20
2022-09-22T17:11:30.131Z,18.20
2022-09-22T17:14:03.742Z,18.20
2022-09-22T17:16:33.616Z,18.10
2022-09-22T17:19:05.879Z,18.10
2022-09-22T17:21:36.222Z,18.10
2022-09-22T17:24:04.842Z,18.10
2022-09-22T17:26:34.478Z,18.00
2022-09-22T17:29:02.018Z,18.00
2022-09-22T17:31:33.005Z,17.90
2022-09-22T17:34:00.222Z,17.80
2022-09-22T17:36:28.153Z,17.80
2022-09-22T17:38:56.845Z,17.70
2022-09-22T17:41:26.165Z,17.70
2022-09-22T17:43:58.518Z,17.60
2022-09-22T17:46:26.620Z,17.60
2022-09-22T17:49:12.573Z,17.50
2022-09-22T17:52:01.952Z,17.50
2022-09-22T17:54:58.304Z,17.40
2022-09-22T17:57:28.001Z,17.40
2022-09-22T17:59:56.337Z,17.30
2022-09-22T18:02:28.781Z,17.20
2022-09-22T18:04:55.805Z,17.20
2022-09-22T18:07:25.100Z,17.10
2022-09-22T18:09:53.470Z,17.10
2022-09-22T18:12:23.043Z,17.00
2022-09-22T18:14:52.349Z,17.00
2022-09-22T18:17:24.893Z,17.00
2022-09-22T18:19:54.497Z,16.90
2022-09-22T18:22:22.334Z,16.90
2022-09-22T18:24:51.364Z,16.80
2022-09-22T18:27:21.909Z,16.80
2022-09-22T18:29:50.105Z,16.70
2022-09-22T18:32:20.087Z,16.70
2022-09-22T18:34:47.504Z,16.60
2022-09-22T18:37:15.707Z,16.60
2022-09-22T18:39:45.211Z,16.60
2022-09-22T18:42:13.542Z,16.60
2022-09-22T18:44:41.411Z,16.60
2022-09-22T18:47:11.630Z,16.50
2022-09-22T18:49:40.570Z,16.50
2022-09-22T18:52:08.126Z,16.40
2022-09-22T18:54:35.831Z,16.40
2022-09-22T18:57:06.945Z,16.40
2022-09-22T18:59:33.749Z,16.30
2022-09-22T19:02:00.576Z,16.30
2022-09-22T19:04:27.427Z,16.20
2022-09-22T19:07:15.725Z,16.10
2022-09-22T19:09:44.344Z,16.10
2022-09-22T19:12:12.006Z,16.00
2022-09-22T19:14:40.018Z,16.00
2022-09-22T19:17:11.499Z,15.90
2022-09-22T19:19:42.329Z,15.90
2022-09-22T19:22:10.598Z,15.80
2022-09-22T19:24:39.090Z,15.80
2022-09-22T19:27:08.601Z,15.70
2022-09-22T19:29:35.889Z,15.70
2022-09-22T19:32:04.245Z,15.60
2022-09-22T19:34:31.347Z,15.60
2022-09-22T19:36:58.724Z,15.60
2022-09-22T19:39:25.698Z,15.50
2022-09-22T19:41:53.018Z,15.50
2022-09-22T19:44:22.426Z,15.40
2022-09-22T19:46:49.951Z,15.40
2022-09-22T19:49:17.450Z,15.40
2022-09-22T19:51:44.618Z,15.30
2022-09-22T19:54:11.976Z,15.30
2022-09-22T19:56:38.757Z,15.30
2022-09-22T19:59:07.407Z,15.30
2022-09-22T20:01:35.937Z,15.20
2022-09-22T20:04:03.101Z,15.20
2022-09-22T20:06:30.090Z,15.10
2022-09-22T20:09:05.449Z,15.20
2022-09-22T20:11:38.667Z,15.10
2022-09-22T20:14:27.126Z,15.10
2022-09-22T20:16:55.233Z,15.00
2022-09-22T20:19:25.897Z,15.00
2022-09-22T20:22:09.683Z,15.00
2022-09-22T20:24:37.309Z,15.00
2022-09-22T20:27:04.318Z,14.90
2022-09-22T20:29:31.228Z,14.90
2022-09-22T20:31:58.345Z,14.90
2022-09-22T20:34:25.338Z,14.90
2022-09-22T20:36:52.389Z,14.80
2022-09-22T20:39:19.345Z,14.80
2022-09-22T20:41:46.092Z,14.80
2022-09-22T20:44:14.721Z,14.70
2022-09-22T20:46:46.865Z,14.70
2022-09-22T20:49:14.612Z,14.60
2022-09-22T20:51:42.134Z,14.70
2022-09-22T20:54:09.163Z,14.60
2022-09-22T20:56:39.393Z,14.50
2022-09-22T20:59:12.337Z,14.50
2022-09-22T21:01:39.378Z,14.50
2022-09-22T21:04:06.363Z,14.50
2022-09-22T21:06:33.176Z,14.40
2022-09-22T21:09:18.296Z,14.40
2022-09-22T21:11:45.062Z,14.30
2022-09-22T21:14:12.801Z,14.30
2022-09-22T21:16:39.471Z,14.30
2022-09-22T21:19:07.407Z,14.30
2022-09-22T21:21:38.846Z,14.30
2022-09-22T21:24:05.908Z,14.10
2022-09-22T21:26:33.158Z,14.10
2022-09-22T21:29:00.088Z,14.10
2022-09-22T21:31:27.693Z,14.10
2022-09-22T21:33:54.836Z,14.00
2022-09-22T21:36:23.015Z,14.00
2022-09-22T21:38:55.471Z,14.00
2022-09-22T21:41:24.240Z,13.90
2022-09-22T21:43:51.323Z,13.90
2022-09-22T21:46:40.964Z,13.80
2022-09-22T21:49:09.018Z,13.80
2022-09-22T21:51:42.030Z,13.70
2022-09-22T21:54:15.419Z,13.70
2022-09-22T21:56:42.526Z,13.60
2022-09-22T21:59:10.392Z,13.50
2022-09-22T22:01:39.434Z,13.50
2022-09-22T22:04:10.281Z,13.50
2022-09-22T22:06:40.729Z,13.50
2022-09-22T22:09:15.878Z,13.40
2022-09-22T22:11:43.995Z,13.40
2022-09-22T22:14:12.558Z,13.30
2022-09-22T22:16:42.417Z,13.40
2022-09-22T22:19:11.982Z,13.30
2022-09-22T22:21:40.961Z,13.30
2022-09-22T22:24:18.410Z,13.30
2022-09-22T22:26:51.642Z,13.30
2022-09-22T22:29:19.845Z,13.20
2022-09-22T22:31:48.977Z,13.20
2022-09-22T22:34:17.897Z,13.20
2022-09-22T22:36:44.830Z,13.10
2022-09-22T22:39:12.597Z,13.10
2022-09-22T22:41:40.539Z,13.10
2022-09-22T22:44:08.263Z,13.00
2022-09-22T22:46:35.874Z,13.00
2022-09-22T22:49:03.023Z,12.90
2022-09-22T22:51:29.813Z,12.90
2022-09-22T22:53:56.599Z,12.90
2022-09-22T22:56:25.577Z,12.90
2022-09-22T22:58:53.217Z,13.00
2022-09-22T23:01:22.931Z,12.80
2022-09-22T23:03:58.494Z,12.80
2022-09-22T23:06:34.085Z,12.80
2022-09-22T23:09:00.759Z,12.70
2022-09-22T23:11:31.328Z,12.70
2022-09-22T23:14:01.883Z,12.70
2022-09-22T23:16:39.338Z,12.70
2022-09-22T23:19:07.790Z,12.70
2022-09-22T23:21:36.202Z,12.60
2022-09-22T23:24:04.070Z,12.60
2022-09-22T23:26:31.898Z,12.60
2022-09-22T23:28:58.959Z,12.50
2022-09-22T23:31:26.131Z,12.50
2022-09-22T23:33:53.689Z,12.50
2022-09-22T23:36:26.433Z,12.50
2022-09-22T23:38:58.259Z,12.50
2022-09-22T23:41:25.145Z,12.50
2022-09-22T23:43:52.038Z,12.50
2022-09-22T23:46:20.820Z,12.50
2022-09-22T23:48:47.634Z,12.50
2022-09-22T23:51:14.596Z,12.40
2022-09-22T23:53:41.597Z,12.40
2022-09-22T23:56:08.486Z,12.40
2022-09-22T23:58:35.364Z,12.40
